• Join FlightAware (Why Join?)
  • Login
  • US Flag 
12:36AM EDT


 

Airport Tracker/Info


-or-


 

Live Flight TrackerFlight Track Log ✈ AAL1305 ✈ 21-Sep-2013 ✈ KORD - KLAX

Flight Track Log - Related Links

Times and Time Zones

All times are in EDT time to prevent confusion due to time zone crossing. See the AAL1305 flight status page for this flight to view local times or setup timezone preferences in your user account.

Time Position Orientation Groundspeed Altitude Reporting Facility
EDT Latitude Longitude Course Direction KTS MPH feet Rate Location/Type
04:26PM 42.0000 -87.9500 252° West 166 191 1,900  Level Chicago TRACON
04:27PM 41.9833 -88.0167 251° West 208 239 3,300 1,860 Climbing Chicago TRACON
04:28PM 41.9327 -88.3391 254° West  Level Estimated
04:28PM 41.9569 -88.1581 256° West 268 308 6,700  Level Chicago Center
04:29PM 41.8884 -88.4721 246° West  Level FlightAware Approximate
04:29PM 41.9450 -88.2586 261° West 276 318 9,300  Level Chicago Center
04:30PM 41.8440 -88.6050 246° West  Level FlightAware Approximate
04:30PM 41.9286 -88.3656 258° West 292 336 10,900  Level Chicago Center
04:31PM 41.8272 -88.7488 252° West  Level Estimated
04:31PM 41.8950 -88.4903 250° West 350 403 12,600  Level Chicago Center
04:32PM 41.8622 -88.6164 251° West 360 414 15,200 2,580 Climbing Chicago Center
04:33PM 41.8219 -88.7711 251° West 370 426 18,000 2,340 Climbing Chicago Center
04:34PM 41.7875 -88.9033 251° West 377 434 20,100 1,920 Climbing Chicago Center
04:35PM 41.7528 -89.0406 251° West 388 447 22,000 1,680 Climbing Chicago Center
04:36PM 41.7150 -89.1803 250° West 402 463 23,600 1,560 Climbing Chicago Center
04:38PM 41.6775 -89.3261 251° West 414 476 25,300 1,620 Climbing Chicago Center
04:39PM 41.6311 -89.5025 251° West 423 487 27,000 1,380 Climbing Chicago Center
04:40PM 41.5931 -89.6458 250° West 428 493 28,200 1,080 Climbing Chicago Center
04:41PM 41.5519 -89.7992 250° West 438 504 29,300 960 Climbing Chicago Center
04:42PM 41.5086 -89.9558 250° West 450 518 30,200 960 Climbing Chicago Center
04:43PM 41.4664 -90.1142 250° West 456 525 31,300 1,200 Climbing Chicago Center
04:44PM 41.4139 -90.3042 250° West 457 526 32,700 1,200 Climbing Chicago Center
04:45PM 41.3706 -90.4606 250° West 454 522 33,800 600 Climbing Chicago Center
04:46PM 41.3283 -90.6167 250° West 453 521 34,000 120 Climbing Chicago Center
04:47PM 41.2897 -90.7764 252° West 454 522 34,100 480 Climbing Chicago Center
04:48PM 41.2533 -90.9322 253° West 445 512 35,000 420 Climbing Chicago Center
04:49PM 41.2175 -91.0886 253° West 444 511 35,000 120 Level Chicago Center
04:50PM 41.1811 -91.2444 253° West 443 510 35,300 480 Climbing Chicago Center
04:51PM 41.1389 -91.4294 253° West 440 506 36,000 300 Climbing Chicago Center
04:52PM 41.1022 -91.5839 253° West 440 506 36,000  Level Chicago Center
04:53PM 41.0656 -91.7417 253° West 443 510 36,000  Level Chicago Center
04:54PM 41.0281 -91.8933 252° West 439 505 36,000  Level Chicago Center
04:55PM 40.9942 -92.0453 254° West 436 502 36,000  Level Chicago Center
04:56PM 40.9756 -92.2031 261° West 438 504 36,000  Level Chicago Center
04:57PM 40.9481 -92.3881 259° West 434 499 36,000  Level Chicago Center
04:58PM 40.9253 -92.5408 259° West 431 496 36,000  Level Chicago Center
04:59PM 40.9025 -92.6939 259° West 430 495 36,000  Level Chicago Center
05:00PM 40.8789 -92.8472 259° West 432 497 36,000  Level Chicago Center
05:01PM 40.8558 -93.0014 259° West 433 498 36,000  Level Chicago Center
05:02PM 40.8281 -93.1856 259° West 432 497 36,000  Level Chicago Center
05:03PM 40.8033 -93.3397 258° West 434 499 36,000  Level Chicago Center
05:04PM 40.7803 -93.4942 259° West 435 501 36,000  Level Chicago Center
05:05PM 40.7550 -93.6481 258° West 434 499 36,000  Level Chicago Center
05:06PM 40.7314 -93.8022 259° West 434 499 36,000  Level Chicago Center
05:07PM 40.7006 -93.9872 258° West 434 499 36,000  Level Chicago Center
05:08PM 40.6767 -94.1400 258° West 431 496 36,000  Level Chicago Center
05:09PM 40.6514 -94.2917 258° West 429 494 36,000  Level Chicago Center
05:10PM 40.6261 -94.4450 258° West 430 495 36,000  Level Chicago Center
05:12PM 40.5894 -94.6525 257° West 432 497 36,000  Level Minneapolis Center
05:13PM 40.5644 -94.8075 258° West 432 497 36,000  Level Minneapolis Center
05:14PM 40.5378 -94.9628 257° West 434 499 36,000  Level Minneapolis Center
05:15PM 40.5108 -95.1192 257° West 435 501 36,000  Level Minneapolis Center
05:16PM 40.4842 -95.2747 257° West 435 501 36,000  Level Minneapolis Center
05:17PM 40.4583 -95.4292 258° West 433 498 36,000  Level Minneapolis Center
05:18PM 40.4247 -95.6200 257° West 439 505 36,000  Level Minneapolis Center
05:19PM 40.3964 -95.7778 257° West 442 509 36,000  Level Minneapolis Center
05:20PM 40.3689 -95.9342 257° West 441 507 36,000  Level Minneapolis Center
05:21PM 40.3411 -96.0878 257° West 435 501 36,000  Level Minneapolis Center
05:22PM 40.3117 -96.2439 256° West 438 504 36,000  Level Minneapolis Center
05:23PM 40.2836 -96.4008 257° West 440 506 36,000  Level Minneapolis Center
05:24PM 40.2553 -96.5569 257° West 440 506 36,000  Level Minneapolis Center
05:25PM 40.2261 -96.7114 256° West 439 505 36,000  Level Minneapolis Center
05:26PM 40.1967 -96.8664 256° West 439 505 36,000  Level Minneapolis Center
05:27PM 40.1614 -97.0539 256° West 441 507 36,000  Level Minneapolis Center
05:28PM 40.1306 -97.2083 255° West 440 506 36,000  Level Minneapolis Center
05:29PM 40.1064 -97.3431 257° West 441 507 36,000  Level Minneapolis Center
05:30PM 40.0697 -97.5297 256° West 442 509 36,000  Level Minneapolis Center
05:31PM 40.0392 -97.6869 256° West 444 511 36,000  Level Minneapolis Center
05:32PM 40.0078 -97.8422 255° West 443 510 36,000  Level Minneapolis Center
05:33PM 39.9775 -97.9961 256° West 439 505 36,000  Level Minneapolis Center
05:34PM 39.9467 -98.1486 255° West 436 502 36,000  Level Minneapolis Center
05:35PM 39.9164 -98.3019 256° West 436 502 36,000  Level Minneapolis Center
05:36PM 39.8847 -98.4544 255° West 435 501 36,000  Level Minneapolis Center
05:37PM 39.8539 -98.6044 255° West 432 497 36,000  Level Minneapolis Center
05:38PM 39.8239 -98.7561 256° West 431 496 36,000  Level Minneapolis Center
05:39PM 39.7919 -98.9075 255° West 432 497 36,000  Level Minneapolis Center
05:40PM 39.7531 -99.0922 255° West 437 503 36,000  Level Minneapolis Center
05:41PM 39.7211 -99.2453 255° West 439 505 36,000  Level Minneapolis Center
05:43PM 39.6883 -99.3969 254° West 437 503 36,000  Level Minneapolis Center
05:44PM 39.6564 -99.5481 255° West 435 501 36,000  Level Minneapolis Center
05:45PM 39.6233 -99.6978 254° West 433 498 36,000  Level Minneapolis Center
05:46PM 39.5917 -99.8492 255° West 433 498 36,000  Level Minneapolis Center
05:47PM 39.5594 -100.0014 255° West 435 501 36,000  Level Minneapolis Center
05:48PM 39.5258 -100.1522 254° West 435 501 36,000  Level Minneapolis Center
05:49PM 39.4719 -100.3889 254° West 438 504 36,000  Level Denver Center
05:50PM 39.4397 -100.5331 254° West 437 503 36,000  Level Denver Center
05:51PM 39.4017 -100.6983 253° West 431 496 36,000  Level Denver Center
05:52PM 39.3639 -100.8681 254° West 437 503 36,000  Level Denver Center
05:53PM 39.3311 -101.0094 253° West 433 498 36,000  Level Denver Center
05:54PM 39.2928 -101.1767 254° West 435 501 36,000  Level Denver Center
05:56PM 39.2544 -101.3422 253° West 432 497 36,000  Level Denver Center
05:57PM 39.2214 -101.4839 253° West 430 495 36,000  Level Denver Center
05:58PM 39.1814 -101.6497 253° West 433 498 36,000  Level Denver Center
05:59PM 39.1456 -101.8058 254° West 438 504 36,000  Level Denver Center
06:00PM 39.1108 -101.9497 253° West 441 507 36,000  Level Denver Center
06:01PM 39.0708 -102.1167 253° West 440 506 36,000  Level Denver Center
06:02PM 39.0361 -102.2608 253° West 441 507 36,000  Level Denver Center
06:03PM 39.0017 -102.4056 253° West 442 509 36,000  Level Denver Center
06:04PM 38.9603 -102.5731 252° West 442 509 36,000  Level Denver Center
06:05PM 38.9147 -102.7550 252° West 445 512 36,000  Level Denver Center
06:06PM 38.8775 -102.9050 252° West 442 509 36,000  Level Denver Center
06:07PM 38.8406 -103.0544 252° West 441 507 36,000  Level Denver Center
06:08PM 38.8022 -103.2058 252° West 445 512 36,000 240 Level Denver Center
06:09PM 38.7567 -103.3844 252° West 440 506 36,500 480 Climbing Denver Center
06:10PM 38.7214 -103.5256 252° West 441 507 37,000 540 Climbing Denver Center
06:11PM 38.7006 -103.6683 259° West 428 493 37,700 420 Climbing Denver Center
06:12PM 38.6811 -103.8339 261° West 423 487 38,000 120 Climbing Denver Center
06:13PM 38.6597 -104.0231 262° West 422 486 38,000  Level Denver Center
06:14PM 38.6436 -104.1597 261° West 423 487 38,000  Level Denver Center
06:16PM 38.6275 -104.3069 262° West 420 483 38,000  Level Denver Center
06:17PM 38.6111 -104.4536 262° West 417 480 38,000  Level Denver Center
06:18PM 38.5928 -104.6289 262° West 415 478 38,000  Level Denver Center
06:19PM 38.5736 -104.7767 261° West 417 480 38,000  Level Denver Center
06:20PM 38.5483 -104.9225 258° West 420 483 38,000  Level Denver Center
06:21PM 38.5181 -105.0675 255° West 422 486 38,000  Level Denver Center
06:22PM 38.4881 -105.2125 255° West 423 487 38,000  Level Denver Center
06:23PM 38.4578 -105.3581 255° West 424 488 38,000  Level Denver Center
06:24PM 38.4203 -105.5014 252° West 425 489 38,000  Level Denver Center
06:25PM 38.3675 -105.6669 248° West 422 486 38,000  Level Denver Center
06:26PM 38.3286 -105.7961 249° West 421 484 38,000  Level Denver Center
06:27PM 38.2825 -105.9497 249° West 418 481 38,000  Level Denver Center
06:28PM 38.2419 -106.0789 248° West 413 475 38,000  Level Denver Center
06:29PM 38.2058 -106.1953 248° West 411 473 38,000  Level Denver Center
06:30PM 38.1556 -106.3561 248° West 407 468 38,000  Level Denver Center
06:31PM 38.1139 -106.4897 248° West 406 467 38,000  Level Denver Center
06:32PM 38.0733 -106.6181 248° West 401 461 38,000  Level Denver Center
06:33PM 38.0269 -106.7664 248° West 406 467 38,000  Level Denver Center
06:34PM 37.9878 -106.8944 249° West 406 467 38,000  Level Denver Center
06:35PM 37.9403 -107.0417 248° West 405 466 38,000  Level Denver Center
06:36PM 37.9069 -107.1472 248° West 405 466 38,000  Level Denver Center
06:37PM 37.8547 -107.3067 248° West 404 465 38,000  Level Denver Center
06:38PM 37.8142 -107.4319 248° West 404 465 38,000  Level Denver Center
06:39PM 37.7664 -107.5806 248° West 408 470 38,000  Level Denver Center
06:40PM 37.7269 -107.7058 248° West 403 464 38,000  Level Denver Center
06:41PM 37.6781 -107.8514 247° West 403 464 38,000  Level Denver Center
06:42PM 37.6367 -107.9769 247° West 404 465 38,000  Level Denver Center
06:44PM 37.5892 -108.1225 248° West 402 463 38,000  Level Denver Center
06:45PM 37.5406 -108.2692 247° West 404 465 38,000  Level Denver Center
06:46PM 37.4925 -108.4156 248° West 404 465 38,000  Level Denver Center
06:47PM 37.4506 -108.5392 247° West 403 464 38,000  Level Denver Center
06:48PM 37.4011 -108.6842 247° West 404 465 38,000  Level Denver Center
06:49PM 37.3603 -108.8078 247° West 403 464 38,000  Level Denver Center
06:50PM 37.3111 -108.9517 247° West 401 461 38,000  Level Denver Center
06:51PM 37.2700 -109.0731 247° West 398 458 38,000  Level Denver Center
06:52PM 37.2225 -109.2122 247° West 393 452 38,000  Level Denver Center
06:53PM 37.1811 -109.3319 247° West 390 449 38,000  Level Denver Center
06:54PM 37.1406 -109.4517 247° West 390 449 38,000  Level Denver Center
06:55PM 37.0919 -109.5928 247° West 396 456 38,000  Level Denver Center
06:56PM 37.0506 -109.7100 246° West 387 445 38,000  Level Denver Center
06:57PM 37.0022 -109.8472 246° West 387 445 38,000  Level Denver Center
06:58PM 36.9611 -109.9622 246° West 383 441 38,000  Level Denver Center
06:59PM 36.9125 -110.0989 246° West 385 443 38,000  Level Denver Center
07:00PM 36.8717 -110.2139 246° West 383 441 38,000  Level Denver Center
07:01PM 36.8289 -110.3367 247° West 385 443 38,000  Level Denver Center
07:02PM 36.7844 -110.4572 245° Southwest 383 441 38,000  Level Denver Center
07:03PM 36.7408 -110.5797 246° West 386 444 38,000  Level Denver Center
07:04PM 36.6889 -110.7253 246° West 384 442 38,000  Level Denver Center
07:05PM 36.6431 -110.8472 245° Southwest 386 444 38,000  Level Denver Center
07:06PM 36.5994 -110.9678 246° West 385 443 38,000  Level Denver Center
07:07PM 36.5569 -111.0864 246° West 379 436 38,000  Level Denver Center
07:08PM 36.5225 -111.1808 246° West 377 434 38,000  Level Denver Center
07:09PM 36.4708 -111.3219 246° West 374 430 38,000  Level Denver Center
07:10PM 36.4269 -111.4408 245° Southwest 376 433 38,000  Level Denver Center
07:11PM 36.3819 -111.5583 245° Southwest 377 434 38,000  Level Denver Center
07:12PM 36.3492 -111.6506 246° West 374 430 38,000  Level Los Angeles Center
07:13PM 36.3025 -111.7692 244° Southwest 381 438 38,000  Level Los Angeles Center
07:14PM 36.2586 -111.8850 245° Southwest 374 430 38,000  Level Los Angeles Center
07:15PM 36.2158 -112.0000 245° Southwest 370 426 38,000  Level Los Angeles Center
07:16PM 36.1697 -112.1186 244° Southwest 379 436 38,000  Level Los Angeles Center
07:17PM 36.1253 -112.2361 245° Southwest 381 438 38,000  Level Los Angeles Center
07:18PM 36.0708 -112.3767 244° Southwest 374 430 38,000  Level Los Angeles Center
07:19PM 36.0261 -112.4931 245° Southwest 375 432 38,000  Level Los Angeles Center
07:20PM 35.9725 -112.6314 244° Southwest 372 428 38,000  Level Los Angeles Center
07:21PM 35.9300 -112.7400 244° Southwest 373 429 38,000  Level Los Angeles Center
07:22PM 35.8864 -112.8514 244° Southwest 366 421 38,000  Level Los Angeles Center
07:23PM 35.8350 -112.9850 245° Southwest 364 419 38,000  Level Los Angeles Center
07:24PM 35.7906 -113.0961 244° Southwest 366 421 38,000  Level Los Angeles Center
07:26PM 35.7469 -113.2089 245° Southwest 369 425 38,000  Level Los Angeles Center
07:27PM 35.7017 -113.3203 243° Southwest 368 423 38,000  Level Los Angeles Center
07:28PM 35.6578 -113.4336 245° Southwest 371 427 38,000  Level Los Angeles Center
07:29PM 35.6033 -113.5678 244° Southwest 370 426 38,000  Level Los Angeles Center
07:30PM 35.5594 -113.6794 244° Southwest 368 423 38,000  Level Los Angeles Center
07:31PM 35.5153 -113.7906 244° Southwest 366 421 38,000  Level Los Angeles Center
07:32PM 35.4694 -113.9011 243° Southwest 366 421 38,000  Level Los Angeles Center
07:33PM 35.4231 -114.0139 243° Southwest 360 414 38,000  Level Los Angeles Center
07:34PM 35.3778 -114.1242 243° Southwest 362 417 38,000  Level Los Angeles Center
07:35PM 35.3328 -114.2344 243° Southwest 362 417 38,000  Level Los Angeles Center
07:36PM 35.2886 -114.3433 244° Southwest 359 413 38,000  Level Los Angeles Center
07:37PM 35.2344 -114.4761 243° Southwest 362 417 38,000  Level Los Angeles Center
07:38PM 35.1886 -114.5878 243° Southwest 364 419 38,000  Level Los Angeles Center
07:39PM 35.1408 -114.7006 243° Southwest 368 423 38,000  Level Los Angeles Center
07:40PM 35.0950 -114.8119 243° Southwest 367 422 38,000  Level Los Angeles Center
07:41PM 35.0492 -114.9217 243° Southwest 364 419 38,000  Level Los Angeles Center
07:42PM 35.0044 -115.0311 244° Southwest 361 415 38,000  Level Los Angeles Center
07:43PM 34.9578 -115.1386 242° Southwest 359 413 38,000  Level Los Angeles Center
07:44PM 34.9144 -115.2469 244° Southwest 355 409 38,000  Level Los Angeles Center
07:45PM 34.8589 -115.3758 242° Southwest 357 411 38,000  Level Los Angeles Center
07:46PM 34.8119 -115.4869 243° Southwest 366 421 38,000  Level Los Angeles Center
07:47PM 34.7647 -115.5997 243° Southwest 365 420 38,000 -420 Level Los Angeles Center
07:48PM 34.7186 -115.7083 243° Southwest 363 418 37,200 -900 Descending Los Angeles Center
07:49PM 34.6719 -115.8150 242° Southwest 358 412 36,200 -1,020 Descending Los Angeles Center
07:50PM 34.6267 -115.9222 243° Southwest 358 412 35,200 -960 Descending Los Angeles Center
07:51PM 34.5806 -116.0308 243° Southwest 360 414 34,300 -900 Descending Los Angeles Center
07:52PM 34.5322 -116.1392 242° Southwest 364 419 33,400 -960 Descending Los Angeles Center
07:53PM 34.4844 -116.2517 243° Southwest 371 427 32,400 -960 Descending Los Angeles Center
07:54PM 34.4356 -116.3656 243° Southwest 380 437 31,500 -1,320 Descending Los Angeles Center
07:55PM 34.3744 -116.5036 242° Southwest 388 447 29,700 -2,040 Descending Los Angeles Center
07:56PM 34.3269 -116.6122 242° Southwest 372 428 27,400 -2,160 Descending Los Angeles Center
07:57PM 34.2786 -116.7225 242° Southwest 370 426 25,300 -2,040 Descending Los Angeles Center
07:58PM 34.2317 -116.8292 242° Southwest 360 414 23,200 -2,040 Descending Los Angeles Center
07:59PM 34.1844 -116.9325 241° Southwest 354 407 21,100 -1,980 Descending Los Angeles Center
08:00PM 34.1397 -117.0328 242° Southwest 344 396 19,200 -1,440 Descending Los Angeles Center
08:01PM 34.1167 -117.1000 248° West 336 387 18,900 -1,140 Descending Southern California TRACON
08:02PM 34.0667 -117.2000 239° Southwest 321 369 17,500 -1,440 Descending Southern California TRACON
08:03PM 34.0500 -117.2833 256° West 300 345 16,200 -1,380 Descending Southern California TRACON
08:04PM 34.0333 -117.4000 260° West 298 343 14,800 -1,380 Descending Southern California TRACON
08:05PM 34.0167 -117.5000 259° West 296 341 13,300 -1,620 Descending Southern California TRACON
08:06PM 34.0167 -117.6000 270° West 367 422 11,600 -1,680 Descending Southern California TRACON
08:07PM 34.0000 -117.6833 256° West 259 298 10,000 -1,440 Descending Southern California TRACON
08:08PM 34.0000 -117.7667 270° West 249 287 8,800 -1,200 Descending Southern California TRACON
08:09PM 33.9833 -117.8500 256° West 255 293 7,800 -1,200 Descending Southern California TRACON
08:10PM 33.9833 -117.9333 270° West 256 295 6,600 -1,140 Descending Southern California TRACON
08:11PM 33.9667 -118.0333 259° West 248 285 5,500 -960 Descending Southern California TRACON
08:12PM 33.9667 -118.1000 270° West 204 235 4,700 -780 Descending Southern California TRACON
08:13PM 33.9622 -118.1372 262° West 197 227 4,100 -960 Descending Los Angeles Center
08:14PM 33.9564 -118.2056 264° West 177 204 3,000 -1,020 Descending Los Angeles Center
08:15PM 33.9494 -118.2614 261° West 172 198 2,100 -840 Descending Los Angeles Center
08:16PM 33.9447 -118.3119 264° West 163 188 1,300 -780 Descending Los Angeles Center
08:17PM 33.9408 -118.3583 264° West 150 173 500 -540 Descending Los Angeles Center
08:18PM 33.9358 -118.4144 264° West 148 170 200 -300 Descending Los Angeles Center